createdAt,value
2023-12-21T00:00:55.088Z,77401.97
2023-12-21T00:03:21.589Z,77397.81
2023-12-21T00:05:48.040Z,77381.19
2023-12-21T00:08:16.989Z,77381.19
2023-12-21T00:10:43.492Z,77383.25
2023-12-21T00:13:09.960Z,77372.88
2023-12-21T00:15:36.456Z,77366.63
2023-12-21T00:18:03.052Z,77366.63
2023-12-21T00:20:30.112Z,77366.63
2023-12-21T00:22:56.999Z,77356.25
2023-12-21T00:25:23.473Z,77352.09
2023-12-21T00:27:50.087Z,77354.16
2023-12-21T00:30:16.798Z,77331.31
2023-12-21T00:32:45.871Z,77335.47
2023-12-21T00:35:12.406Z,77325.09
2023-12-21T00:37:39.094Z,77325.09
2023-12-21T00:40:06.364Z,77323.00
2023-12-21T00:42:33.553Z,77318.84
2023-12-21T00:45:00.054Z,77308.47
2023-12-21T00:47:26.439Z,77312.63
2023-12-21T00:49:52.867Z,77306.38
2023-12-21T00:52:19.387Z,77293.91
2023-12-21T00:54:45.811Z,77287.69
2023-12-21T00:57:12.293Z,77277.31
2023-12-21T00:59:38.802Z,77273.16
2023-12-21T01:02:05.354Z,77264.84
2023-12-21T01:04:31.841Z,77262.75
2023-12-21T01:06:58.284Z,77246.13
2023-12-21T01:09:24.741Z,77258.59
2023-12-21T01:11:51.117Z,77275.22
2023-12-21T01:14:18.256Z,77277.31
2023-12-21T01:16:44.745Z,77273.16
2023-12-21T01:19:13.538Z,77269.00
2023-12-21T01:21:40.128Z,77252.38
2023-12-21T01:24:07.175Z,77254.44
2023-12-21T01:26:33.602Z,77248.22
2023-12-21T01:28:59.986Z,77235.75
2023-12-21T01:31:28.844Z,77239.91
2023-12-21T01:33:55.347Z,77241.97
2023-12-21T01:36:21.824Z,77239.91
2023-12-21T01:38:48.299Z,77235.75
2023-12-21T01:41:17.353Z,77231.59
2023-12-21T01:43:43.967Z,77225.38
2023-12-21T01:46:10.456Z,77223.28
2023-12-21T01:48:38.120Z,77223.28
2023-12-21T01:51:05.687Z,77208.75
2023-12-21T01:53:33.670Z,77225.38
2023-12-21T01:56:01.416Z,77212.91
2023-12-21T01:58:27.985Z,77210.81
2023-12-21T02:00:58.115Z,77223.28
2023-12-21T02:03:26.397Z,77219.13
2023-12-21T02:05:52.901Z,77214.97
2023-12-21T02:08:19.707Z,77212.91
2023-12-21T02:10:48.137Z,77202.50
2023-12-21T02:13:16.657Z,77190.03
2023-12-21T02:15:43.184Z,77196.28
2023-12-21T02:18:11.253Z,77190.03
2023-12-21T02:20:38.062Z,77183.81
2023-12-21T02:23:08.691Z,77177.56
2023-12-21T02:25:36.275Z,77169.25
2023-12-21T02:28:03.591Z,77167.19
2023-12-21T02:30:30.085Z,77156.81
2023-12-21T02:32:57.697Z,77163.03
2023-12-21T02:35:24.290Z,77156.81
2023-12-21T02:37:50.946Z,77152.66
2023-12-21T02:40:20.118Z,77144.34
2023-12-21T02:42:46.835Z,77146.41
2023-12-21T02:45:13.484Z,77144.34
2023-12-21T02:47:39.873Z,77152.66
2023-12-21T02:50:08.276Z,77158.88
2023-12-21T02:52:34.968Z,77146.41
2023-12-21T02:55:01.541Z,77142.25
2023-12-21T02:57:27.978Z,77144.34
2023-12-21T02:59:54.390Z,77140.19
2023-12-21T03:02:20.889Z,77121.47
2023-12-21T03:04:47.382Z,77104.88
2023-12-21T03:07:16.074Z,77109.03
2023-12-21T03:09:42.560Z,77090.31
2023-12-21T03:12:09.272Z,77090.31
2023-12-21T03:14:35.712Z,77069.53
2023-12-21T03:17:02.179Z,77052.94
2023-12-21T03:19:28.749Z,77052.94
2023-12-21T03:21:55.268Z,77055.00
2023-12-21T03:24:21.655Z,77055.00
2023-12-21T03:26:48.071Z,77046.69
2023-12-21T03:29:16.025Z,77050.84
2023-12-21T03:31:42.627Z,77040.47
2023-12-21T03:34:09.169Z,77038.38
2023-12-21T03:36:35.781Z,77028.00
2023-12-21T03:39:02.372Z,77040.47
2023-12-21T03:41:28.758Z,77032.16
2023-12-21T03:43:55.158Z,77032.16
2023-12-21T03:46:21.796Z,77034.22
2023-12-21T03:48:48.232Z,77030.06
2023-12-21T03:51:14.709Z,77023.84
2023-12-21T03:53:41.157Z,77040.47
2023-12-21T03:56:07.948Z,77042.53
2023-12-21T03:58:34.389Z,77038.38
2023-12-21T04:01:00.995Z,77025.91
2023-12-21T04:03:27.967Z,77019.69
2023-12-21T04:05:54.443Z,77011.38
2023-12-21T04:08:20.937Z,77007.22
2023-12-21T04:10:50.662Z,77009.28
2023-12-21T04:13:17.151Z,77015.53
2023-12-21T04:15:43.858Z,77007.22
2023-12-21T04:18:10.600Z,76996.84
2023-12-21T04:20:37.140Z,76982.28
2023-12-21T04:23:03.686Z,76976.06
2023-12-21T04:25:30.121Z,76959.44
2023-12-21T04:27:56.819Z,76961.50
2023-12-21T04:30:23.598Z,76951.13
2023-12-21T04:32:50.393Z,76944.91
2023-12-21T04:35:17.138Z,76940.75
2023-12-21T04:37:43.647Z,76909.59
2023-12-21T04:40:10.952Z,76895.03
2023-12-21T04:42:37.656Z,76890.88
2023-12-21T04:45:04.525Z,76903.34
2023-12-21T04:47:30.888Z,76911.66
2023-12-21T04:49:58.486Z,76888.81
2023-12-21T04:52:25.036Z,76888.81
2023-12-21T04:54:51.453Z,76890.88
2023-12-21T04:57:21.039Z,76892.97
2023-12-21T04:59:48.640Z,76899.19
2023-12-21T05:02:15.015Z,76899.19
2023-12-21T05:04:41.550Z,76890.88
2023-12-21T05:07:08.037Z,76859.72
2023-12-21T05:09:34.425Z,76868.03
2023-12-21T05:12:00.863Z,76878.41
2023-12-21T05:14:27.299Z,76855.56
2023-12-21T05:16:53.906Z,76857.66
2023-12-21T05:19:20.390Z,76859.72
2023-12-21T05:21:46.948Z,76859.72
2023-12-21T05:24:13.422Z,76863.88
2023-12-21T05:26:39.779Z,76870.09
2023-12-21T05:29:06.210Z,76857.66
2023-12-21T05:31:32.683Z,76874.25
2023-12-21T05:33:59.183Z,76888.81
2023-12-21T05:36:26.319Z,76890.88
2023-12-21T05:38:54.255Z,76886.72
2023-12-21T05:41:20.784Z,76907.50
2023-12-21T05:43:47.484Z,76907.50
2023-12-21T05:46:13.978Z,76905.41
2023-12-21T05:48:43.348Z,76897.13
2023-12-21T05:51:09.850Z,76905.41
2023-12-21T05:53:36.295Z,76901.28
2023-12-21T05:56:02.757Z,76907.50
2023-12-21T05:58:29.394Z,76899.19
2023-12-21T06:00:55.868Z,76899.19
2023-12-21T06:03:22.423Z,76907.50
2023-12-21T06:05:49.939Z,76911.66
2023-12-21T06:08:16.661Z,76882.56
2023-12-21T06:10:43.143Z,76868.03
2023-12-21T06:13:09.658Z,76863.88
2023-12-21T06:15:36.074Z,76861.78
2023-12-21T06:18:02.500Z,76865.94
2023-12-21T06:20:28.927Z,76868.03
2023-12-21T06:22:55.425Z,76841.03
2023-12-21T06:25:21.878Z,76841.03
2023-12-21T06:27:48.376Z,76853.50
2023-12-21T06:30:14.822Z,76843.09
2023-12-21T06:32:41.293Z,76838.94
2023-12-21T06:35:08.213Z,76826.47
2023-12-21T06:37:34.708Z,76816.09
2023-12-21T06:40:01.251Z,76803.63
2023-12-21T06:42:27.738Z,76805.72
2023-12-21T06:44:54.125Z,76793.25
2023-12-21T06:47:20.572Z,76791.16
2023-12-21T06:49:47.265Z,76789.09
2023-12-21T06:52:13.682Z,76774.53
2023-12-21T06:54:40.904Z,76764.16
2023-12-21T06:57:08.455Z,76766.25
2023-12-21T06:59:34.908Z,76770.41
2023-12-21T07:02:01.676Z,76757.94
2023-12-21T07:04:28.185Z,76753.78
2023-12-21T07:06:54.758Z,76737.16
2023-12-21T07:09:21.161Z,76737.16
2023-12-21T07:11:49.195Z,76730.94
2023-12-21T07:14:15.979Z,76726.78
2023-12-21T07:16:44.681Z,76728.84
2023-12-21T07:19:11.189Z,76724.69
2023-12-21T07:21:37.845Z,76739.22
2023-12-21T07:24:04.809Z,76747.53
2023-12-21T07:26:31.467Z,76755.84
2023-12-21T07:28:57.820Z,76749.63
2023-12-21T07:31:24.281Z,76749.63
2023-12-21T07:33:50.879Z,76749.63
2023-12-21T07:36:17.457Z,76745.47
2023-12-21T07:38:44.340Z,76743.38
2023-12-21T07:41:10.846Z,76737.16
2023-12-21T07:43:37.422Z,76730.94
2023-12-21T07:46:05.613Z,76735.06
2023-12-21T07:48:33.058Z,76733.00
2023-12-21T07:50:59.593Z,76735.06
2023-12-21T07:53:26.121Z,76737.16
2023-12-21T07:55:52.570Z,76741.31
2023-12-21T07:58:18.989Z,76743.38
2023-12-21T08:00:45.435Z,76735.06
2023-12-21T08:03:11.875Z,76737.16
2023-12-21T08:05:39.610Z,76724.69
2023-12-21T08:08:06.485Z,76726.78
2023-12-21T08:10:32.982Z,76720.53
2023-12-21T08:12:59.650Z,76728.84
2023-12-21T08:15:26.152Z,76714.31
2023-12-21T08:17:52.642Z,76708.06
2023-12-21T08:20:19.315Z,76714.31
2023-12-21T08:22:46.198Z,76697.69
2023-12-21T08:25:13.204Z,76691.47
2023-12-21T08:27:39.855Z,76683.16
2023-12-21T08:30:06.992Z,76668.59
2023-12-21T08:32:33.475Z,76662.38
2023-12-21T08:35:00.774Z,76658.22
2023-12-21T08:37:27.363Z,76662.38
2023-12-21T08:39:54.744Z,76666.53
2023-12-21T08:42:21.185Z,76651.97
2023-12-21T08:44:48.901Z,76627.06
2023-12-21T08:47:15.649Z,76645.75
2023-12-21T08:49:42.169Z,76627.06
2023-12-21T08:52:08.666Z,76631.22
2023-12-21T08:54:35.329Z,76624.97
2023-12-21T08:57:01.718Z,76593.81
2023-12-21T08:59:30.772Z,76589.66
2023-12-21T09:01:57.462Z,76570.97
2023-12-21T09:04:24.033Z,76573.06
2023-12-21T09:06:53.409Z,76556.44
2023-12-21T09:09:19.854Z,76560.59
2023-12-21T09:11:46.841Z,76541.88
2023-12-21T09:14:13.389Z,76556.44
2023-12-21T09:16:39.923Z,76558.50
2023-12-21T09:19:06.654Z,76556.44
2023-12-21T09:21:34.307Z,76552.28
2023-12-21T09:24:00.727Z,76554.34
2023-12-21T09:26:27.314Z,76537.75
2023-12-21T09:28:53.813Z,76552.28
2023-12-21T09:31:20.296Z,76546.03
2023-12-21T09:33:46.993Z,76533.59
2023-12-21T09:36:16.488Z,76533.59
2023-12-21T09:38:42.941Z,76523.19
2023-12-21T09:41:09.468Z,76525.28
2023-12-21T09:43:38.970Z,76521.13
2023-12-21T09:46:05.957Z,76500.34
2023-12-21T09:48:38.336Z,76506.56
2023-12-21T09:51:05.063Z,76489.97
2023-12-21T09:53:34.282Z,76506.56
2023-12-21T09:56:01.415Z,76496.19
2023-12-21T09:58:28.073Z,76485.81
2023-12-21T10:00:54.656Z,76489.97
2023-12-21T10:03:23.523Z,76489.97
2023-12-21T10:05:50.020Z,76496.19
2023-12-21T10:08:16.937Z,76492.03
2023-12-21T10:10:43.459Z,76494.13
2023-12-21T10:13:09.916Z,76475.41
2023-12-21T10:15:37.610Z,76485.81
2023-12-21T10:18:09.988Z,76479.56
2023-12-21T10:20:37.027Z,76460.88
2023-12-21T10:23:03.736Z,76465.03
2023-12-21T10:25:30.282Z,76435.94
2023-12-21T10:27:57.681Z,76438.03
2023-12-21T10:30:25.156Z,76429.72
2023-12-21T10:32:57.609Z,76444.25
2023-12-21T10:35:25.374Z,76408.94
2023-12-21T10:37:52.366Z,76390.25
2023-12-21T10:40:18.943Z,76398.56
2023-12-21T10:42:49.516Z,76381.94
2023-12-21T10:45:29.746Z,76392.34
2023-12-21T10:48:06.945Z,76394.41
2023-12-21T10:50:35.111Z,76390.25
2023-12-21T10:53:02.609Z,76398.56
2023-12-21T10:55:31.528Z,76392.34
2023-12-21T10:58:00.217Z,76404.78
2023-12-21T11:00:27.532Z,76406.88
2023-12-21T11:02:58.743Z,76396.47
2023-12-21T11:05:26.405Z,76402.72
2023-12-21T11:07:54.856Z,76404.78
2023-12-21T11:10:23.048Z,76413.09
2023-12-21T11:12:50.127Z,76377.78
2023-12-21T11:15:18.397Z,76392.34
2023-12-21T11:17:49.723Z,76386.09
2023-12-21T11:20:22.303Z,76388.19
2023-12-21T11:22:49.184Z,76400.63
2023-12-21T11:25:22.250Z,76394.41
2023-12-21T11:27:48.677Z,76408.94
2023-12-21T11:30:15.425Z,76390.25
2023-12-21T11:32:43.886Z,76381.94
2023-12-21T11:35:21.251Z,76371.56
2023-12-21T11:37:55.506Z,76386.09
2023-12-21T11:40:25.703Z,76373.63
2023-12-21T11:42:54.697Z,76392.34
2023-12-21T11:45:25.801Z,76408.94
2023-12-21T11:47:56.640Z,76373.63
2023-12-21T11:50:24.840Z,76381.94
2023-12-21T11:53:01.343Z,76386.09
2023-12-21T11:55:39.234Z,76384.03
2023-12-21T11:58:24.677Z,76363.25
2023-12-21T12:00:52.072Z,76357.03
2023-12-21T12:03:19.844Z,76327.94
2023-12-21T12:05:47.012Z,76332.09
2023-12-21T12:08:20.028Z,76323.78
2023-12-21T12:10:46.489Z,76330.00
2023-12-21T12:13:17.381Z,76340.41
2023-12-21T12:15:47.005Z,76338.31
2023-12-21T12:18:13.766Z,76338.31
2023-12-21T12:20:47.461Z,76340.41
2023-12-21T12:23:14.122Z,76371.56
2023-12-21T12:25:47.368Z,76354.94
2023-12-21T12:28:16.201Z,76373.63
2023-12-21T12:30:45.608Z,76371.56
2023-12-21T12:33:13.571Z,76367.41
2023-12-21T12:35:40.365Z,76365.31
2023-12-21T12:38:08.403Z,76334.16
2023-12-21T12:40:35.876Z,76315.47
2023-12-21T12:43:03.086Z,76315.47
2023-12-21T12:45:30.478Z,76325.88
2023-12-21T12:47:57.520Z,76336.25
2023-12-21T12:50:24.919Z,76317.56
2023-12-21T12:52:51.440Z,76354.94
2023-12-21T12:55:20.267Z,76346.63
2023-12-21T12:57:47.693Z,76340.41
2023-12-21T13:00:19.111Z,76346.63
2023-12-21T13:02:45.922Z,76332.09
2023-12-21T13:05:13.041Z,76377.78
2023-12-21T13:07:39.838Z,76367.41
2023-12-21T13:10:09.861Z,76361.19
2023-12-21T13:12:37.611Z,76379.88
2023-12-21T13:15:05.756Z,76357.03
2023-12-21T13:17:32.205Z,76325.88
2023-12-21T13:19:58.693Z,76371.56
2023-12-21T13:22:25.264Z,76365.31
2023-12-21T13:24:51.806Z,76390.25
2023-12-21T13:27:18.248Z,76390.25
2023-12-21T13:29:44.866Z,76377.78
2023-12-21T13:32:12.147Z,76377.78
2023-12-21T13:34:38.862Z,76361.19
2023-12-21T13:37:05.369Z,76361.19
2023-12-21T13:39:32.028Z,76375.72
2023-12-21T13:41:58.751Z,76365.31
2023-12-21T13:44:29.373Z,76384.03
2023-12-21T13:46:58.890Z,76392.34
2023-12-21T13:49:25.757Z,76369.47
2023-12-21T13:51:54.292Z,76369.47
2023-12-21T13:54:21.617Z,76369.47
2023-12-21T13:56:52.916Z,76367.41
2023-12-21T13:59:22.312Z,76371.56
2023-12-21T14:01:48.889Z,76361.19
2023-12-21T14:04:15.710Z,76361.19
2023-12-21T14:06:42.242Z,76379.88
2023-12-21T14:09:08.707Z,76373.63
2023-12-21T14:11:35.190Z,76365.31
2023-12-21T14:14:01.616Z,76386.09
2023-12-21T14:16:28.226Z,76386.09
2023-12-21T14:18:54.686Z,76373.63
2023-12-21T14:21:21.093Z,76377.78
2023-12-21T14:23:47.434Z,76371.56
2023-12-21T14:26:14.062Z,76369.47
2023-12-21T14:28:46.879Z,76367.41
2023-12-21T14:31:17.964Z,76375.72
2023-12-21T14:33:44.474Z,76377.78
2023-12-21T14:36:10.970Z,76384.03
2023-12-21T14:38:37.449Z,76384.03
2023-12-21T14:41:04.010Z,76377.78
2023-12-21T14:43:30.537Z,76390.25
2023-12-21T14:45:56.977Z,76402.72
2023-12-21T14:48:25.818Z,76386.09
2023-12-21T14:50:52.516Z,76384.03
2023-12-21T14:53:18.965Z,76392.34
2023-12-21T14:55:45.674Z,76406.88
2023-12-21T14:58:14.070Z,76411.03
2023-12-21T15:00:40.601Z,76402.72
2023-12-21T15:03:07.114Z,76408.94
2023-12-21T15:05:33.640Z,76425.56
2023-12-21T15:08:02.935Z,76404.78
2023-12-21T15:10:30.110Z,76408.94
2023-12-21T15:12:56.589Z,76400.63
2023-12-21T15:15:23.239Z,76408.94
2023-12-21T15:17:50.021Z,76400.63
2023-12-21T15:20:19.167Z,76400.63
2023-12-21T15:22:45.750Z,76400.63
2023-12-21T15:25:12.279Z,76417.25
2023-12-21T15:27:38.723Z,76431.81
2023-12-21T15:30:05.788Z,76440.09
2023-12-21T15:32:32.361Z,76425.56
2023-12-21T15:34:58.918Z,76456.72
2023-12-21T15:37:25.427Z,76477.50
2023-12-21T15:39:52.177Z,76465.03
2023-12-21T15:42:18.735Z,76462.97
2023-12-21T15:44:45.265Z,76477.50
2023-12-21T15:47:11.664Z,76460.88
2023-12-21T15:49:38.186Z,76487.88
2023-12-21T15:52:06.927Z,76502.41
2023-12-21T15:54:34.796Z,76489.97
2023-12-21T15:57:01.323Z,76492.03
2023-12-21T15:59:27.724Z,76487.88
2023-12-21T16:01:56.562Z,76506.56
2023-12-21T16:04:23.384Z,76500.34
2023-12-21T16:06:52.417Z,76508.66
2023-12-21T16:09:19.274Z,76494.13
2023-12-21T16:11:48.057Z,76496.19
2023-12-21T16:14:14.548Z,76508.66
2023-12-21T16:16:41.003Z,76502.41
2023-12-21T16:19:07.698Z,76552.28
2023-12-21T16:21:34.271Z,76558.50
2023-12-21T16:24:00.706Z,76552.28
2023-12-21T16:26:27.119Z,76560.59
2023-12-21T16:28:53.635Z,76550.19
2023-12-21T16:31:20.399Z,76558.50
2023-12-21T16:33:47.014Z,76560.59
2023-12-21T16:36:13.547Z,76554.34
2023-12-21T16:38:39.966Z,76556.44
2023-12-21T16:41:06.406Z,76585.50
2023-12-21T16:43:33.120Z,76612.50
2023-12-21T16:46:01.430Z,76639.53
2023-12-21T16:48:27.916Z,76666.53
2023-12-21T16:50:54.332Z,76666.53
2023-12-21T16:53:20.848Z,76672.75
2023-12-21T16:55:47.352Z,76660.28
2023-12-21T16:58:13.998Z,76662.38
2023-12-21T17:00:42.450Z,76658.22
2023-12-21T17:03:08.896Z,76622.91
2023-12-21T17:05:35.631Z,76660.28
2023-12-21T17:08:02.179Z,76697.69
2023-12-21T17:10:28.631Z,76753.78
2023-12-21T17:12:55.093Z,76949.06
2023-12-21T17:15:21.694Z,77113.16
2023-12-21T17:17:48.561Z,77173.41
2023-12-21T17:20:15.658Z,77190.03
2023-12-21T17:22:42.309Z,77200.44
2023-12-21T17:25:08.974Z,77169.25
2023-12-21T17:27:35.388Z,77194.19
2023-12-21T17:30:01.911Z,77165.09
2023-12-21T17:32:28.386Z,77150.56
2023-12-21T17:34:54.909Z,77179.66
2023-12-21T17:37:21.530Z,77173.41
2023-12-21T17:39:48.515Z,77158.88
2023-12-21T17:42:15.028Z,77152.66
2023-12-21T17:44:41.727Z,77144.34
2023-12-21T17:47:08.235Z,77148.50
2023-12-21T17:49:36.115Z,77144.34
2023-12-21T17:52:02.668Z,77133.94
2023-12-21T17:54:29.108Z,77129.78
2023-12-21T17:56:56.710Z,77133.94
2023-12-21T17:59:23.185Z,77144.34
2023-12-21T18:01:49.735Z,77152.66
2023-12-21T18:04:16.390Z,77152.66
2023-12-21T18:06:43.053Z,77158.88
2023-12-21T18:09:09.747Z,77158.88
2023-12-21T18:11:36.460Z,77144.34
2023-12-21T18:14:03.037Z,77138.09
2023-12-21T18:16:30.642Z,77140.19
2023-12-21T18:18:57.160Z,77138.09
2023-12-21T18:21:24.496Z,77146.41
2023-12-21T18:23:52.421Z,77129.78
2023-12-21T18:26:18.841Z,77104.88
2023-12-21T18:28:45.292Z,77100.72
2023-12-21T18:31:11.883Z,77094.47
2023-12-21T18:33:38.419Z,77098.63
2023-12-21T18:36:05.331Z,77098.63
2023-12-21T18:38:32.859Z,77100.72
2023-12-21T18:40:59.362Z,77104.88
2023-12-21T18:43:25.964Z,77098.63
2023-12-21T18:45:53.044Z,77113.16
2023-12-21T18:48:19.823Z,77102.78
2023-12-21T18:50:46.878Z,77090.31
2023-12-21T18:53:13.807Z,77082.00
2023-12-21T18:55:40.381Z,77090.31
2023-12-21T18:58:09.960Z,77094.47
2023-12-21T19:00:36.999Z,77084.09
2023-12-21T19:03:03.952Z,77079.94
2023-12-21T19:05:30.756Z,77084.09
2023-12-21T19:07:57.467Z,77075.78
2023-12-21T19:10:24.140Z,77084.09
2023-12-21T19:12:50.906Z,77092.41
2023-12-21T19:15:17.391Z,77090.31
2023-12-21T19:17:43.964Z,77090.31
2023-12-21T19:20:12.935Z,77092.41
2023-12-21T19:22:39.445Z,77096.56
2023-12-21T19:25:06.377Z,77115.25
2023-12-21T19:27:34.188Z,77106.94
2023-12-21T19:30:00.697Z,77115.25
2023-12-21T19:32:27.214Z,77109.03
2023-12-21T19:34:55.024Z,77123.56
2023-12-21T19:37:21.615Z,77119.41
2023-12-21T19:39:48.525Z,77117.31
2023-12-21T19:42:14.952Z,77115.25
2023-12-21T19:44:41.326Z,77104.88
2023-12-21T19:47:07.780Z,77115.25
2023-12-21T19:49:36.695Z,77111.09
2023-12-21T19:52:03.581Z,77117.31
2023-12-21T19:54:30.172Z,77121.47
2023-12-21T19:56:56.585Z,77125.63
2023-12-21T19:59:23.052Z,77100.72
2023-12-21T20:01:50.261Z,77111.09
2023-12-21T20:04:17.826Z,77109.03
2023-12-21T20:06:45.232Z,77115.25
2023-12-21T20:09:12.520Z,77127.72
2023-12-21T20:11:39.221Z,77117.31
2023-12-21T20:14:05.835Z,77127.72
2023-12-21T20:16:32.270Z,77125.63
2023-12-21T20:18:58.892Z,77131.88
2023-12-21T20:21:25.634Z,77148.50
2023-12-21T20:23:52.356Z,77152.66
2023-12-21T20:26:18.876Z,77163.03
2023-12-21T20:28:45.454Z,77171.34
2023-12-21T20:31:12.225Z,77158.88
2023-12-21T20:33:38.844Z,77165.09
2023-12-21T20:36:05.535Z,77165.09
2023-12-21T20:38:34.725Z,77179.66
2023-12-21T20:41:01.787Z,77177.56
2023-12-21T20:43:28.279Z,77179.66
2023-12-21T20:45:57.242Z,77175.50
2023-12-21T20:48:23.830Z,77175.50
2023-12-21T20:50:50.305Z,77175.50
2023-12-21T20:53:16.790Z,77167.19
2023-12-21T20:55:43.270Z,77163.03
2023-12-21T20:58:10.923Z,77150.56
2023-12-21T21:00:37.577Z,77140.19
2023-12-21T21:03:04.998Z,77123.56
2023-12-21T21:05:31.611Z,77129.78
2023-12-21T21:07:59.190Z,77131.88
2023-12-21T21:10:25.717Z,77131.88
2023-12-21T21:12:52.228Z,77146.41
2023-12-21T21:15:18.667Z,77179.66
2023-12-21T21:17:45.362Z,77252.38
2023-12-21T21:20:12.371Z,77455.97
2023-12-21T21:22:38.877Z,77470.53
2023-12-21T21:25:08.582Z,77503.78
2023-12-21T21:27:35.499Z,77501.69
2023-12-21T21:30:03.349Z,77507.91
2023-12-21T21:32:29.857Z,77537.00
2023-12-21T21:34:56.422Z,77526.63
2023-12-21T21:37:23.025Z,77507.91
2023-12-21T21:39:49.582Z,77526.63
2023-12-21T21:42:16.098Z,77526.63
2023-12-21T21:44:42.669Z,77539.09
2023-12-21T21:47:09.034Z,77522.47
2023-12-21T21:49:35.639Z,77503.78
2023-12-21T21:52:02.208Z,77495.47
2023-12-21T21:54:30.991Z,77487.16
2023-12-21T21:56:57.494Z,77476.75
2023-12-21T21:59:23.854Z,77505.84
2023-12-21T22:01:50.412Z,77495.47
2023-12-21T22:04:17.143Z,77485.06
2023-12-21T22:06:44.859Z,77476.75
2023-12-21T22:09:11.241Z,77468.44
2023-12-21T22:11:37.683Z,77474.69
2023-12-21T22:14:04.162Z,77485.06
2023-12-21T22:16:30.633Z,77485.06
2023-12-21T22:18:57.147Z,77458.06
2023-12-21T22:21:23.906Z,77472.59
2023-12-21T22:23:50.338Z,77451.81
2023-12-21T22:26:23.140Z,77449.75
2023-12-21T22:28:49.776Z,77451.81
2023-12-21T22:31:16.744Z,77458.06
2023-12-21T22:33:43.275Z,77474.69
2023-12-21T22:36:09.766Z,77464.28
2023-12-21T22:38:37.026Z,77485.06
2023-12-21T22:41:05.006Z,77466.38
2023-12-21T22:43:39.689Z,77478.84
2023-12-21T22:46:09.744Z,77489.22
2023-12-21T22:48:36.350Z,77478.84
2023-12-21T22:51:04.311Z,77478.84
2023-12-21T22:53:30.701Z,77493.38
2023-12-21T22:55:57.289Z,77495.47
2023-12-21T22:58:24.075Z,77491.31
2023-12-21T23:00:50.497Z,77491.31
2023-12-21T23:03:16.964Z,77491.31
2023-12-21T23:05:43.485Z,77493.38
2023-12-21T23:08:09.965Z,77497.53
2023-12-21T23:10:36.513Z,77495.47
2023-12-21T23:13:03.717Z,77487.16
2023-12-21T23:15:30.529Z,77483.00
2023-12-21T23:17:57.022Z,77491.31
2023-12-21T23:20:23.780Z,77493.38
2023-12-21T23:22:50.989Z,77476.75
2023-12-21T23:25:17.758Z,77464.28
2023-12-21T23:27:44.300Z,77453.91
2023-12-21T23:30:11.447Z,77441.44
2023-12-21T23:32:37.965Z,77441.44
2023-12-21T23:35:16.076Z,77437.28
2023-12-21T23:37:44.956Z,77433.13
2023-12-21T23:40:12.560Z,77449.75
2023-12-21T23:42:41.617Z,77437.28
2023-12-21T23:45:08.818Z,77435.19
2023-12-21T23:47:35.892Z,77443.50
2023-12-21T23:50:02.749Z,77451.81
2023-12-21T23:52:29.441Z,77443.50
2023-12-21T23:54:56.160Z,77451.81
2023-12-21T23:57:22.597Z,77443.50
2023-12-21T23:59:49.029Z,77451.81
